createdAt,value
2019-06-01T00:00:50.537Z,4.92
2019-06-01T00:05:58.386Z,5.17
2019-06-01T00:11:06.053Z,5.25
2019-06-01T00:16:13.872Z,5.88
2019-06-01T00:21:21.591Z,6.18
2019-06-01T00:26:29.515Z,6.58
2019-06-01T00:31:37.165Z,7.00
2019-06-01T00:36:45.638Z,6.74
2019-06-01T00:41:52.446Z,6.87
2019-06-01T00:46:59.462Z,7.13
2019-06-01T00:52:07.290Z,7.42
2019-06-01T00:57:14.972Z,7.32
2019-06-01T01:02:22.848Z,7.19
2019-06-01T01:07:30.683Z,7.24
2019-06-01T01:12:38.289Z,7.47
2019-06-01T01:17:45.965Z,7.40
2019-06-01T01:22:54.368Z,7.90
2019-06-01T01:28:01.000Z,7.88
2019-06-01T01:33:09.103Z,7.59
2019-06-01T01:38:16.910Z,7.12
2019-06-01T01:43:24.647Z,7.73
2019-06-01T01:48:32.490Z,8.16
2019-06-01T01:53:40.561Z,8.16
2019-06-01T01:58:48.489Z,8.14
2019-06-01T02:03:57.359Z,7.89
2019-06-01T02:09:03.507Z,7.79
2019-06-01T02:14:11.193Z,7.98
2019-06-01T02:19:20.373Z,8.35
2019-06-01T02:24:28.145Z,8.37
2019-06-01T02:29:35.939Z,8.47
2019-06-01T02:34:43.693Z,8.33
2019-06-01T02:39:51.590Z,9.12
2019-06-01T02:44:59.304Z,8.83
2019-06-01T02:50:07.114Z,8.75
2019-06-01T02:55:14.829Z,8.40
2019-06-01T03:00:22.931Z,9.34
2019-06-01T03:05:30.606Z,9.98
2019-06-01T03:10:39.465Z,8.78
2019-06-01T03:15:47.257Z,10.05
2019-06-01T03:20:55.066Z,9.66
2019-06-01T03:26:04.196Z,9.98
2019-06-01T03:31:10.684Z,9.04
2019-06-01T03:36:17.396Z,9.08
2019-06-01T03:41:25.156Z,9.73
2019-06-01T03:46:32.869Z,9.00
2019-06-01T03:51:40.465Z,9.33
2019-06-01T03:56:48.227Z,9.77
2019-06-01T04:01:56.014Z,11.30
2019-06-01T04:07:03.625Z,11.22
2019-06-01T04:12:12.133Z,12.66
2019-06-01T04:17:18.747Z,13.84
2019-06-01T04:22:26.679Z,12.38
2019-06-01T04:27:34.348Z,13.66
2019-06-01T04:32:49.928Z,13.98
2019-06-01T04:37:49.559Z,14.26
2019-06-01T04:42:57.365Z,14.14
2019-06-01T04:48:06.288Z,14.71
2019-06-01T04:53:13.445Z,13.96
2019-06-01T04:58:21.609Z,14.77
2019-06-01T05:03:29.296Z,14.82
2019-06-01T05:08:37.897Z,13.77
2019-06-01T05:13:45.659Z,14.11
2019-06-01T05:18:53.431Z,14.63
2019-06-01T05:24:01.210Z,16.24
2019-06-01T05:29:09.370Z,15.58
2019-06-01T05:34:16.092Z,16.25
2019-06-01T05:39:23.777Z,16.16
2019-06-01T05:44:31.544Z,16.28
2019-06-01T05:49:39.179Z,16.02
2019-06-01T05:54:47.224Z,15.22
2019-06-01T05:59:55.006Z,14.80
2019-06-01T06:05:02.846Z,16.61
2019-06-01T06:10:11.960Z,14.80
2019-06-01T06:15:19.837Z,14.02
2019-06-01T06:20:27.640Z,13.96
2019-06-01T06:25:37.666Z,12.92
2019-06-01T06:30:43.072Z,12.39
2019-06-01T06:35:50.917Z,12.03
2019-06-01T06:40:58.588Z,11.64
2019-06-01T06:46:06.401Z,11.51
2019-06-01T06:51:15.133Z,10.93
2019-06-01T06:56:22.014Z,10.47
2019-06-01T07:01:28.598Z,9.77
2019-06-01T07:06:36.464Z,10.18
2019-06-01T07:11:44.739Z,9.07
2019-06-01T07:16:52.620Z,8.81
2019-06-01T07:22:00.358Z,7.07
2019-06-01T07:27:08.551Z,7.31
2019-06-01T07:32:16.389Z,7.15
2019-06-01T07:37:24.465Z,7.15
2019-06-01T07:42:33.088Z,9.42
2019-06-01T07:47:41.071Z,8.14
2019-06-01T07:52:48.774Z,8.22
2019-06-01T07:57:56.586Z,6.15
2019-06-01T08:08:07.178Z,6.44
2019-06-01T08:13:15.156Z,5.26
2019-06-01T08:18:23.919Z,6.17
2019-06-01T08:23:30.290Z,5.71
2019-06-01T08:28:37.918Z,5.65
2019-06-01T08:33:45.860Z,5.69
2019-06-01T08:38:54.048Z,5.12
2019-06-01T08:44:01.912Z,5.56
2019-06-01T08:49:10.570Z,5.53
2019-06-01T08:54:18.364Z,5.55
2019-06-01T08:59:26.242Z,5.17
2019-06-01T09:04:34.936Z,6.75
2019-06-01T09:09:41.470Z,6.83
2019-06-01T09:14:50.054Z,5.03
2019-06-01T09:19:58.093Z,6.72
2019-06-01T09:25:05.904Z,7.95
2019-06-01T09:30:14.013Z,5.94
2019-06-01T09:35:21.826Z,5.78
2019-06-01T09:40:30.423Z,5.01
2019-06-01T09:45:38.372Z,5.88
2019-06-01T09:50:45.380Z,5.92
2019-06-01T09:55:53.103Z,5.66
2019-06-01T10:01:01.284Z,5.67
2019-06-01T10:06:09.064Z,4.56
2019-06-01T10:11:17.452Z,4.73
2019-06-01T10:16:27.932Z,5.24
2019-06-01T10:21:25.673Z,4.85
2019-06-01T10:26:34.366Z,5.13
2019-06-01T10:31:41.571Z,4.20
2019-06-01T10:36:49.229Z,4.32
2019-06-01T10:41:57.476Z,4.96
2019-06-01T10:47:05.218Z,4.75
2019-06-01T10:52:13.045Z,3.43
2019-06-01T10:57:20.843Z,3.81
2019-06-01T11:02:29.649Z,3.49
2019-06-01T11:07:39.046Z,4.00
2019-06-01T11:12:46.019Z,2.90
2019-06-01T11:17:56.473Z,3.68
2019-06-01T11:22:55.300Z,3.10
2019-06-01T11:28:02.962Z,4.27
2019-06-01T11:33:10.642Z,2.77
2019-06-01T11:38:19.688Z,3.60
2019-06-01T11:43:27.493Z,3.37
2019-06-01T11:48:35.263Z,3.21
2019-06-01T11:53:43.434Z,2.87
2019-06-01T11:58:50.251Z,2.69
2019-06-01T12:03:58.064Z,3.08
2019-06-01T12:09:05.674Z,3.05
2019-06-01T12:14:13.529Z,2.53
2019-06-01T12:19:21.150Z,2.98
2019-06-01T12:24:28.888Z,2.38
2019-06-01T12:29:37.429Z,2.48
2019-06-01T12:34:44.113Z,2.57
2019-06-01T12:39:54.306Z,2.65
2019-06-01T12:45:00.166Z,2.73
2019-06-01T12:50:07.828Z,3.13
2019-06-01T12:55:15.685Z,3.15
2019-06-01T13:00:23.410Z,3.31
2019-06-01T13:05:31.065Z,2.68
2019-06-01T13:10:38.857Z,2.84
2019-06-01T13:15:47.338Z,2.89
2019-06-01T13:20:57.240Z,2.91
2019-06-01T13:25:54.876Z,3.23
2019-06-01T13:31:02.582Z,2.71
2019-06-01T13:36:10.334Z,3.15
2019-06-01T13:41:18.115Z,2.48
2019-06-01T13:46:25.841Z,2.20
2019-06-01T13:51:34.468Z,2.73
2019-06-01T13:56:42.264Z,3.24
2019-06-01T14:01:51.488Z,2.38
2019-06-01T14:06:58.160Z,2.17
2019-06-01T14:12:05.806Z,2.69
2019-06-01T14:17:13.529Z,3.32
2019-06-01T14:22:22.129Z,3.05
2019-06-01T14:27:29.996Z,2.73
2019-06-01T14:32:37.841Z,3.34
2019-06-01T14:37:46.652Z,2.92
2019-06-01T14:42:53.624Z,2.72
2019-06-01T14:47:59.945Z,2.89
2019-06-01T14:53:07.717Z,3.17
2019-06-01T14:58:15.411Z,2.47
2019-06-01T15:03:23.043Z,2.70
2019-06-01T15:08:30.869Z,3.09
2019-06-01T15:13:38.589Z,3.03
2019-06-01T15:18:46.360Z,5.63
2019-06-01T15:23:54.013Z,3.55
2019-06-01T15:29:03.085Z,3.79
2019-06-01T15:34:09.241Z,3.77
2019-06-01T15:39:24.879Z,4.19
2019-06-01T15:44:25.264Z,3.47
2019-06-01T15:49:33.410Z,4.02
2019-06-01T15:54:45.029Z,3.29
2019-06-01T15:59:42.718Z,3.98
2019-06-01T16:04:50.485Z,3.69
2019-06-01T16:09:59.391Z,3.77
2019-06-01T16:15:05.572Z,3.80
2019-06-01T16:20:13.377Z,4.34
2019-06-01T16:25:21.007Z,4.03
2019-06-01T16:30:28.896Z,3.88
2019-06-01T16:35:36.640Z,4.69
2019-06-01T16:40:44.266Z,4.38
2019-06-01T16:45:52.252Z,4.31
2019-06-01T16:51:01.852Z,4.49
2019-06-01T16:56:08.114Z,5.04
2019-06-01T17:01:15.758Z,4.12
2019-06-01T17:06:25.411Z,4.20
2019-06-01T17:11:33.317Z,4.07
2019-06-01T17:16:42.248Z,4.17
2019-06-01T17:21:49.973Z,4.17
2019-06-01T17:26:57.899Z,3.90
2019-06-01T17:32:22.727Z,3.96
2019-06-01T17:37:13.197Z,4.40
2019-06-01T17:42:20.961Z,3.95
2019-06-01T17:47:28.849Z,4.20
2019-06-01T17:52:36.590Z,4.51
2019-06-01T17:57:44.482Z,3.87
2019-06-01T18:02:52.219Z,4.05
2019-06-01T18:08:01.874Z,3.98
2019-06-01T18:13:08.651Z,4.40
2019-06-01T18:18:16.665Z,4.45
2019-06-01T18:23:24.654Z,4.40
2019-06-01T18:28:32.732Z,4.24
2019-06-01T18:33:40.461Z,4.03
2019-06-01T18:38:49.502Z,3.91
2019-06-01T18:43:58.231Z,3.63
2019-06-01T18:49:06.106Z,3.89
2019-06-01T18:54:15.274Z,3.77
2019-06-01T18:59:23.812Z,3.64
2019-06-01T19:04:30.526Z,3.77
2019-06-01T19:09:38.220Z,3.93
2019-06-01T19:14:47.092Z,4.05
2019-06-01T19:19:54.843Z,3.65
2019-06-01T19:25:02.583Z,3.57
2019-06-01T19:30:10.829Z,3.06
2019-06-01T19:35:17.799Z,2.81
2019-06-01T19:40:25.809Z,2.82
2019-06-01T19:45:34.704Z,2.89
2019-06-01T19:50:42.785Z,3.03
2019-06-01T19:55:50.473Z,2.77
2019-06-01T20:00:58.260Z,2.76
2019-06-01T20:06:06.062Z,3.02
2019-06-01T20:11:15.027Z,2.92
2019-06-01T20:16:22.900Z,2.99
2019-06-01T20:21:28.901Z,3.04
2019-06-01T20:26:42.089Z,2.61
2019-06-01T20:31:44.021Z,2.37
2019-06-01T20:36:51.966Z,2.78
2019-06-01T20:42:00.028Z,3.24
2019-06-01T20:47:07.820Z,3.45
2019-06-01T20:52:16.782Z,4.08
2019-06-01T20:57:23.972Z,4.24
2019-06-01T21:02:30.400Z,3.76
2019-06-01T21:07:38.219Z,4.40
2019-06-01T21:12:46.349Z,4.11
2019-06-01T21:17:54.310Z,4.39
2019-06-01T21:23:02.005Z,4.61
2019-06-01T21:28:14.223Z,4.20
2019-06-01T21:33:17.415Z,4.38
2019-06-01T21:38:25.768Z,4.33
2019-06-01T21:43:35.168Z,4.64
2019-06-01T21:48:39.888Z,4.00
2019-06-01T21:53:47.658Z,4.24
2019-06-01T21:58:55.572Z,4.58
2019-06-01T22:04:03.464Z,4.60
2019-06-01T22:09:11.157Z,4.90
2019-06-01T22:14:19.378Z,4.58
2019-06-01T22:19:26.159Z,4.22
2019-06-01T22:24:34.204Z,4.37
2019-06-01T22:29:42.016Z,4.32
2019-06-01T22:35:03.592Z,4.31
2019-06-01T22:39:50.396Z,4.90
2019-06-01T22:44:58.040Z,4.58
2019-06-01T22:50:05.761Z,4.27
2019-06-01T22:55:13.560Z,4.19
2019-06-01T23:00:21.487Z,4.34
2019-06-01T23:05:29.091Z,4.53
2019-06-01T23:10:36.766Z,4.99
2019-06-01T23:15:44.447Z,5.17
2019-06-01T23:20:53.108Z,4.98
2019-06-01T23:26:00.742Z,5.01
2019-06-01T23:31:08.514Z,5.16
2019-06-01T23:36:16.168Z,5.19
2019-06-01T23:41:24.494Z,5.16
2019-06-01T23:46:31.317Z,5.31
2019-06-01T23:51:39.081Z,5.74
2019-06-01T23:56:46.859Z,6.08
